KFBL/FBL METAR and TAF weather

Enter ICAO airport designator
Station Type Date Time Source
KFBL METAR 2022/11/30 10:15 UTC NOAA

KFBL 301015Z AUTO 26015G28KT 5SM -SN SCT025 OVC031 M07/M10 A2987 RMK AO2


Station Type Date Time Source
KFBL Decoded METAR 2022/11/30 10:15 UTC NOAA

Faribault, Faribault Municipal Airport, MN, United States (KFBL) 44-20N 093-19W
Nov 30, 2022 - 05:15 AM EST / 2022.11.30 1015 UTC
Wind: from the W (260 degrees) at 17 MPH (15 KT) gusting to 32 MPH (28 KT):0
Visibility: 5 mile(s):0
Sky conditions: overcast
Weather: light snow
Temperature: 19 F (-7 C)
Windchill: 3 F (-16 C):1
Dew Point: 14 F (-10 C)
Relative Humidity: 79%
Pressure (altimeter): 29.87 in. Hg (1011 hPa)
ob: KFBL 301015Z AUTO 26015G28KT 5SM -SN SCT025 OVC031 M07/M10 A2987 RMK AO2
cycle: 10

Station Type Date Time Source
KFBL TAF UTC NOAA

Error!

Example: see airport list